FNHU/NOV METAR and TAF weather

Enter ICAO airport designator
Station Type Date Time Source
FNHU METAR 2022/01/28 15:00 UTC NOAA

FNHU 281500Z 25005KT 8000 VCSH BKN018 FEW026CB SCT070 24/17 Q1017


Station Type Date Time Source
FNHU Decoded METAR 2022/01/28 15:00 UTC NOAA

Huambo Nova Lisboa , Angola (FNHU) 12-48S 015-45E 1701M
Jan 28, 2022 - 10:00 AM EST / 2022.01.28 1500 UTC
Wind: from the WSW (250 degrees) at 6 MPH (5 KT):0
Visibility: 4 mile(s):0
Sky conditions: mostly cloudy
Weather: showers in the vicinity; Cumulonimbus clouds observed
Temperature: 75 F (24 C)
Dew Point: 62 F (17 C)
Relative Humidity: 64%
Pressure (altimeter): 30.03 in. Hg (1017 hPa)
ob: FNHU 281500Z 25005KT 8000 VCSH BKN018 FEW026CB SCT070 24/17 Q1017
cycle: 15

Station Type Date Time Source
FNHU TAF 2022/01/29 12:55 UTC NOAA

TAF FNHU 291055Z 2912/2924 27007KT 9999 FEW016 OVC030 PROB30
TEMPO 2912/2918 3000 -RA
TEMPO 2918/2922 4000 DZ
BECMG 2922/2924 7000 BKN010

Example: see airport list